createdAt,value
2023-04-01T00:00:10.264Z,941.8
2023-04-01T00:01:12.086Z,941.8
2023-04-01T00:02:14.292Z,941.8
2023-04-01T00:03:16.875Z,941.8
2023-04-01T00:04:19.201Z,941.7
2023-04-01T00:05:21.534Z,941.8
2023-04-01T00:06:23.588Z,941.7
2023-04-01T00:07:31.282Z,941.8
2023-04-01T00:08:33.229Z,941.8
2023-04-01T00:09:35.174Z,941.8
2023-04-01T00:10:37.027Z,941.8
2023-04-01T00:11:41.542Z,941.8
2023-04-01T00:12:43.419Z,941.8
2023-04-01T00:13:45.236Z,941.8
2023-04-01T00:14:47.089Z,941.8
2023-04-01T00:15:48.983Z,941.8
2023-04-01T00:16:51.144Z,941.8
2023-04-01T00:17:53.386Z,941.7
2023-04-01T00:18:55.347Z,941.8
2023-04-01T00:19:57.154Z,941.8
2023-04-01T00:20:58.928Z,941.8
2023-04-01T00:22:00.645Z,941.8
2023-04-01T00:23:02.600Z,941.8
2023-04-01T00:24:04.676Z,941.8
2023-04-01T00:25:06.481Z,941.8
2023-04-01T00:26:08.388Z,941.8
2023-04-01T00:27:10.214Z,941.8
2023-04-01T00:28:12.058Z,941.8
2023-04-01T00:29:14.025Z,941.8
2023-04-01T00:30:15.877Z,941.8
2023-04-01T00:31:18.056Z,941.8
2023-04-01T00:32:20.076Z,941.8
2023-04-01T00:33:21.923Z,941.8
2023-04-01T00:34:23.953Z,941.8
2023-04-01T00:35:25.835Z,941.8
2023-04-01T00:36:27.662Z,941.8
2023-04-01T00:37:29.843Z,941.7
2023-04-01T00:38:31.707Z,941.7
2023-04-01T00:39:33.518Z,941.7
2023-04-01T00:40:35.361Z,941.7
2023-04-01T00:41:37.350Z,941.7
2023-04-01T00:42:39.096Z,941.6
2023-04-01T00:43:40.943Z,941.6
2023-04-01T00:44:42.791Z,941.6
2023-04-01T00:45:44.584Z,941.6
2023-04-01T00:46:46.620Z,941.6
2023-04-01T00:47:48.567Z,941.6
2023-04-01T00:48:50.501Z,941.6
2023-04-01T00:49:52.385Z,941.5
2023-04-01T00:50:54.210Z,941.5
2023-04-01T00:51:56.158Z,941.5
2023-04-01T00:52:58.036Z,941.5
2023-04-01T00:53:59.957Z,941.5
2023-04-01T00:55:01.805Z,941.4
2023-04-01T00:56:03.663Z,941.3
2023-04-01T00:57:05.644Z,941.3
2023-04-01T00:58:07.567Z,941.3
2023-04-01T00:59:09.650Z,941.4
2023-04-01T01:00:11.537Z,941.3
2023-04-01T01:01:13.648Z,941.4
2023-04-01T01:02:15.825Z,941.3
2023-04-01T01:03:18.165Z,941.3
2023-04-01T01:04:20.352Z,941.3
2023-04-01T01:05:23.113Z,941.4
2023-04-01T01:06:26.874Z,941.3
2023-04-01T01:07:28.823Z,941.3
2023-04-01T01:08:30.776Z,941.3
2023-04-01T01:09:32.628Z,941.3
2023-04-01T01:10:34.475Z,941.3
2023-04-01T01:11:44.313Z,941.3
2023-04-01T01:12:46.158Z,941.2
2023-04-01T01:13:48.017Z,941.2
2023-04-01T01:14:49.862Z,941.1
2023-04-01T01:15:51.714Z,941.1
2023-04-01T01:16:53.773Z,941.1
2023-04-01T01:17:55.857Z,941.1
2023-04-01T01:18:57.677Z,941
2023-04-01T01:19:59.526Z,941
2023-04-01T01:21:01.504Z,940.9
2023-04-01T01:22:03.318Z,940.8
2023-04-01T01:23:05.384Z,940.9
2023-04-01T01:24:07.157Z,940.8
2023-04-01T01:25:09.078Z,940.9
2023-04-01T01:26:10.931Z,940.9
2023-04-01T01:27:12.792Z,941
2023-04-01T01:28:14.562Z,941
2023-04-01T01:29:16.518Z,941
2023-04-01T01:30:18.426Z,941
2023-04-01T01:31:20.398Z,941
2023-04-01T01:32:22.329Z,941
2023-04-01T01:33:24.176Z,941
2023-04-01T01:34:26.035Z,940.9
2023-04-01T01:35:27.874Z,940.9
2023-04-01T01:36:29.860Z,940.8
2023-04-01T01:37:31.826Z,940.8
2023-04-01T01:38:33.638Z,940.8
2023-04-01T01:39:35.583Z,940.8
2023-04-01T01:40:37.542Z,940.7
2023-04-01T01:41:39.390Z,940.8
2023-04-01T01:42:41.243Z,940.8
2023-04-01T01:43:43.119Z,940.8
2023-04-01T01:44:44.939Z,940.7
2023-04-01T01:45:47.111Z,940.6
2023-04-01T01:46:49.042Z,940.6
2023-04-01T01:47:50.931Z,940.6
2023-04-01T01:48:52.954Z,940.6
2023-04-01T01:49:54.910Z,940.6
2023-04-01T01:50:56.734Z,940.7
2023-04-01T01:51:58.631Z,940.8
2023-04-01T01:53:00.560Z,940.8
2023-04-01T01:54:02.415Z,940.8
2023-04-01T01:55:04.261Z,940.7
2023-04-01T01:56:06.217Z,940.6
2023-04-01T01:57:08.344Z,940.6
2023-04-01T01:58:10.223Z,940.6
2023-04-01T01:59:12.005Z,940.6
2023-04-01T02:00:13.729Z,940.7
2023-04-01T02:01:15.769Z,940.7
2023-04-01T02:02:17.610Z,940.7
2023-04-01T02:03:19.463Z,940.6
2023-04-01T02:04:21.252Z,940.5
2023-04-01T02:05:23.167Z,940.5
2023-04-01T02:06:25.120Z,940.5
2023-04-01T02:07:26.996Z,940.4
2023-04-01T02:08:28.937Z,940.4
2023-04-01T02:09:30.661Z,940.4
2023-04-01T02:10:32.545Z,940.4
2023-04-01T02:11:34.361Z,940.4
2023-04-01T02:12:36.209Z,940.4
2023-04-01T02:13:38.062Z,940.4
2023-04-01T02:14:39.923Z,940.4
2023-04-01T02:15:41.781Z,940.4
2023-04-01T02:16:43.621Z,940.3
2023-04-01T02:17:45.680Z,940.4
2023-04-01T02:18:47.713Z,940.4
2023-04-01T02:19:49.472Z,940.4
2023-04-01T02:20:51.325Z,940.4
2023-04-01T02:21:53.169Z,940.3
2023-04-01T02:22:55.062Z,940.4
2023-04-01T02:23:56.981Z,940.3
2023-04-01T02:24:58.927Z,940.3
2023-04-01T02:26:00.678Z,940.3
2023-04-01T02:27:02.428Z,940.3
2023-04-01T02:28:04.391Z,940.2
2023-04-01T02:29:06.119Z,940.2
2023-04-01T02:30:08.062Z,940.1
2023-04-01T02:31:10.180Z,940.2
2023-04-01T02:32:11.984Z,940.2
2023-04-01T02:33:14.009Z,940.3
2023-04-01T02:34:15.865Z,940.2
2023-04-01T02:35:17.742Z,940.3
2023-04-01T02:36:19.700Z,940.3
2023-04-01T02:37:21.538Z,940.3
2023-04-01T02:38:23.424Z,940.2
2023-04-01T02:39:25.347Z,940.1
2023-04-01T02:40:27.202Z,940.1
2023-04-01T02:41:29.136Z,940.1
2023-04-01T02:42:30.997Z,940.2
2023-04-01T02:43:32.846Z,940.2
2023-04-01T02:44:34.691Z,940.2
2023-04-01T02:45:36.547Z,940.2
2023-04-01T02:46:38.528Z,940.2
2023-04-01T02:47:40.672Z,940.3
2023-04-01T02:48:42.508Z,940.3
2023-04-01T02:49:44.367Z,940.4
2023-04-01T02:50:46.199Z,940.3
2023-04-01T02:51:48.062Z,940.3
2023-04-01T02:52:49.918Z,940.3
2023-04-01T02:53:51.879Z,940.3
2023-04-01T02:54:53.815Z,940.3
2023-04-01T02:55:55.868Z,940.3
2023-04-01T02:56:58.079Z,940.4
2023-04-01T02:57:59.971Z,940.5
2023-04-01T02:59:01.725Z,940.5
2023-04-01T03:00:03.693Z,940.5
2023-04-01T03:01:05.647Z,940.5
2023-04-01T03:02:07.736Z,940.6
2023-04-01T03:03:10.274Z,940.6
2023-04-01T03:04:12.443Z,940.6
2023-04-01T03:05:14.259Z,940.6
2023-04-01T03:06:16.109Z,940.6
2023-04-01T03:07:18.063Z,940.6
2023-04-01T03:08:20.008Z,940.6
2023-04-01T03:09:21.890Z,940.6
2023-04-01T03:10:23.714Z,940.6
2023-04-01T03:11:25.559Z,940.7
2023-04-01T03:12:27.412Z,940.7
2023-04-01T03:13:29.272Z,940.8
2023-04-01T03:14:31.321Z,940.8
2023-04-01T03:15:33.817Z,940.7
2023-04-01T03:16:36.386Z,940.7
2023-04-01T03:17:38.641Z,940.6
2023-04-01T03:18:40.456Z,940.5
2023-04-01T03:19:42.301Z,940.6
2023-04-01T03:20:44.052Z,940.7
2023-04-01T03:21:46.004Z,940.8
2023-04-01T03:22:47.866Z,940.8
2023-04-01T03:23:49.706Z,940.7
2023-04-01T03:24:51.550Z,940.6
2023-04-01T03:25:53.502Z,940.6
2023-04-01T03:26:55.258Z,940.7
2023-04-01T03:27:57.116Z,940.9
2023-04-01T03:28:58.958Z,940.8
2023-04-01T03:30:01.035Z,940.7
2023-04-01T03:31:03.073Z,940.6
2023-04-01T03:32:04.920Z,940.5
2023-04-01T03:33:06.895Z,940.7
2023-04-01T03:34:08.919Z,940.8
2023-04-01T03:35:10.867Z,940.7
2023-04-01T03:36:12.954Z,940.6
2023-04-01T03:37:14.980Z,940.6
2023-04-01T03:38:16.836Z,940.6
2023-04-01T03:39:18.678Z,940.6
2023-04-01T03:40:20.667Z,940.6
2023-04-01T03:41:22.589Z,940.5
2023-04-01T03:42:24.775Z,940.6
2023-04-01T03:43:26.745Z,940.6
2023-04-01T03:44:28.471Z,940.6
2023-04-01T03:45:31.054Z,940.5
2023-04-01T03:46:33.588Z,940.6
2023-04-01T03:47:35.474Z,940.6
2023-04-01T03:48:37.440Z,940.5
2023-04-01T03:49:39.442Z,940.5
2023-04-01T03:50:41.292Z,940.5
2023-04-01T03:51:43.170Z,940.5
2023-04-01T03:52:44.992Z,940.6
2023-04-01T03:53:46.732Z,940.6
2023-04-01T03:54:48.591Z,940.5
2023-04-01T03:55:50.463Z,940.5
2023-04-01T03:56:52.619Z,940.5
2023-04-01T03:57:54.546Z,940.4
2023-04-01T03:58:56.490Z,940.3
2023-04-01T03:59:58.345Z,940.3
2023-04-01T04:01:00.194Z,940.3
2023-04-01T04:02:02.040Z,940.2
2023-04-01T04:03:04.360Z,940.2
2023-04-01T04:04:06.460Z,939.9
2023-04-01T04:05:08.342Z,939.9
2023-04-01T04:06:10.167Z,939.9
2023-04-01T04:07:12.009Z,939.9
2023-04-01T04:08:13.755Z,939.9
2023-04-01T04:09:15.623Z,939.8
2023-04-01T04:10:17.467Z,939.8
2023-04-01T04:11:19.243Z,939.8
2023-04-01T04:12:21.163Z,939.8
2023-04-01T04:13:23.008Z,939.8
2023-04-01T04:14:24.873Z,939.7
2023-04-01T04:15:26.741Z,939.7
2023-04-01T04:16:28.784Z,939.7
2023-04-01T04:17:31.039Z,939.7
2023-04-01T04:18:32.990Z,939.6
2023-04-01T04:19:34.832Z,939.6
2023-04-01T04:20:36.694Z,939.5
2023-04-01T04:21:38.534Z,939.5
2023-04-01T04:22:40.490Z,939.6
2023-04-01T04:23:42.437Z,939.6
2023-04-01T04:24:44.282Z,939.5
2023-04-01T04:25:46.130Z,939.4
2023-04-01T04:26:47.909Z,939.4
2023-04-01T04:27:49.735Z,939.4
2023-04-01T04:28:51.692Z,939.4
2023-04-01T04:29:53.527Z,939.3
2023-04-01T04:30:55.379Z,939.5
2023-04-01T04:31:57.431Z,939.5
2023-04-01T04:32:59.656Z,939.5
2023-04-01T04:34:01.771Z,939.3
2023-04-01T04:35:03.605Z,939.3
2023-04-01T04:36:05.939Z,939.3
2023-04-01T04:37:07.929Z,939.4
2023-04-01T04:38:09.876Z,939.4
2023-04-01T04:39:11.819Z,939.2
2023-04-01T04:40:13.669Z,939.2
2023-04-01T04:41:15.423Z,939.2
2023-04-01T04:42:17.306Z,939.2
2023-04-01T04:43:19.104Z,939.2
2023-04-01T04:44:20.970Z,939.1
2023-04-01T04:45:22.833Z,939.1
2023-04-01T04:46:25.009Z,939.1
2023-04-01T04:47:26.955Z,939
2023-04-01T04:48:28.774Z,939
2023-04-01T04:49:30.625Z,939
2023-04-01T04:50:32.416Z,939
2023-04-01T04:51:34.324Z,939
2023-04-01T04:52:36.055Z,938.9
2023-04-01T04:53:37.928Z,938.9
2023-04-01T04:54:39.780Z,938.8
2023-04-01T04:55:41.638Z,938.8
2023-04-01T04:56:43.573Z,938.8
2023-04-01T04:57:45.450Z,938.8
2023-04-01T04:58:47.273Z,938.9
2023-04-01T04:59:49.124Z,938.9
2023-04-01T05:00:50.976Z,938.8
2023-04-01T05:01:53.280Z,938.8
2023-04-01T05:02:55.777Z,938.8
2023-04-01T05:03:57.754Z,938.9
2023-04-01T05:04:59.589Z,938.9
2023-04-01T05:06:01.455Z,938.8
2023-04-01T05:07:03.405Z,938.9
2023-04-01T05:08:05.255Z,938.9
2023-04-01T05:09:07.041Z,938.8
2023-04-01T05:10:08.764Z,938.7
2023-04-01T05:11:14.298Z,938.6
2023-04-01T05:12:16.260Z,938.6
2023-04-01T05:13:18.255Z,938.8
2023-04-01T05:14:20.144Z,938.7
2023-04-01T05:15:21.901Z,938.7
2023-04-01T05:16:23.968Z,938.7
2023-04-01T05:17:26.023Z,938.7
2023-04-01T05:18:28.057Z,938.7
2023-04-01T05:19:29.913Z,938.8
2023-04-01T05:20:31.766Z,938.7
2023-04-01T05:21:33.709Z,938.6
2023-04-01T05:22:35.660Z,938.5
2023-04-01T05:23:37.521Z,938.6
2023-04-01T05:24:39.360Z,938.6
2023-04-01T05:25:41.312Z,938.6
2023-04-01T05:26:43.163Z,938.6
2023-04-01T05:27:45.024Z,938.6
2023-04-01T05:28:47.870Z,938.6
2023-04-01T05:29:50.171Z,938.6
2023-04-01T05:30:52.246Z,938.6
2023-04-01T05:31:54.154Z,938.4
2023-04-01T05:32:56.350Z,938.3
2023-04-01T05:33:58.262Z,938.4
2023-04-01T05:35:00.012Z,938.5
2023-04-01T05:36:02.102Z,938.5
2023-04-01T05:37:04.022Z,938.5
2023-04-01T05:38:08.110Z,938.5
2023-04-01T05:39:09.971Z,938.3
2023-04-01T05:40:11.851Z,938.4
2023-04-01T05:41:13.678Z,938.4
2023-04-01T05:42:15.527Z,938.4
2023-04-01T05:43:17.372Z,938.3
2023-04-01T05:44:19.255Z,938.4
2023-04-01T05:45:21.078Z,938.4
2023-04-01T05:46:23.167Z,938.3
2023-04-01T05:47:25.230Z,938.4
2023-04-01T05:48:27.134Z,938.5
2023-04-01T05:49:29.428Z,938.6
2023-04-01T05:50:31.255Z,938.4
2023-04-01T05:51:33.139Z,938.3
2023-04-01T05:52:35.059Z,938.4
2023-04-01T05:53:36.902Z,938.5
2023-04-01T05:54:38.848Z,938.6
2023-04-01T05:55:40.708Z,938.6
2023-04-01T05:56:42.565Z,938.6
2023-04-01T05:57:44.407Z,938.4
2023-04-01T05:58:46.247Z,938.3
2023-04-01T05:59:48.128Z,938.3
2023-04-01T06:01:11.145Z,938.3
2023-04-01T06:02:19.224Z,938.3
2023-04-01T06:03:21.903Z,938.3
2023-04-01T06:04:24.006Z,938.2
2023-04-01T06:05:25.944Z,938.2
2023-04-01T06:06:27.848Z,938.2
2023-04-01T06:07:29.832Z,938.2
2023-04-01T06:08:31.690Z,938.2
2023-04-01T06:09:33.527Z,938.1
2023-04-01T06:10:35.472Z,938.2
2023-04-01T06:11:37.346Z,938.3
2023-04-01T06:12:39.183Z,938.3
2023-04-01T06:13:40.931Z,938.3
2023-04-01T06:14:42.794Z,938.3
2023-04-01T06:15:44.667Z,938.3
2023-04-01T06:16:46.692Z,938.3
2023-04-01T06:17:48.661Z,938.3
2023-04-01T06:18:50.522Z,938.3
2023-04-01T06:19:52.340Z,938.3
2023-04-01T06:20:54.187Z,938.3
2023-04-01T06:21:56.145Z,938.3
2023-04-01T06:22:57.877Z,938.2
2023-04-01T06:23:59.839Z,938.2
2023-04-01T06:25:01.689Z,938.3
2023-04-01T06:26:03.543Z,938.3
2023-04-01T06:27:05.500Z,938.3
2023-04-01T06:28:09.691Z,938.2
2023-04-01T06:29:11.653Z,938.3
2023-04-01T06:30:13.604Z,938.3
2023-04-01T06:31:15.767Z,938.3
2023-04-01T06:32:18.169Z,938.2
2023-04-01T06:33:20.076Z,938.2
2023-04-01T06:34:21.926Z,938.2
2023-04-01T06:35:24.123Z,938.2
2023-04-01T06:36:26.176Z,938.2
2023-04-01T06:37:28.292Z,938.2
2023-04-01T06:38:30.137Z,938.2
2023-04-01T06:39:31.896Z,938.1
2023-04-01T06:40:33.846Z,938.1
2023-04-01T06:41:35.790Z,938.1
2023-04-01T06:42:37.576Z,938.1
2023-04-01T06:43:39.599Z,938.2
2023-04-01T06:44:41.442Z,938.2
2023-04-01T06:45:43.314Z,938.1
2023-04-01T06:46:45.200Z,938
2023-04-01T06:47:47.230Z,938.1
2023-04-01T06:48:49.148Z,938.1
2023-04-01T06:49:51.023Z,938.1
2023-04-01T06:50:52.851Z,938.1
2023-04-01T06:51:54.914Z,938
2023-04-01T06:52:57.062Z,937.9
2023-04-01T06:53:58.911Z,938
2023-04-01T06:55:00.872Z,938
2023-04-01T06:56:02.710Z,937.9
2023-04-01T06:57:04.677Z,937.9
2023-04-01T06:58:06.538Z,938
2023-04-01T06:59:08.374Z,938
2023-04-01T07:00:10.251Z,937.9
2023-04-01T07:01:12.427Z,937.8
2023-04-01T07:02:14.361Z,937.8
2023-04-01T07:03:16.302Z,937.8
2023-04-01T07:04:18.240Z,937.7
2023-04-01T07:05:20.092Z,937.6
2023-04-01T07:06:22.245Z,937.7
2023-04-01T07:07:24.085Z,937.7
2023-04-01T07:08:25.944Z,937.7
2023-04-01T07:09:27.894Z,937.7
2023-04-01T07:10:29.735Z,937.8
2023-04-01T07:11:31.489Z,937.8
2023-04-01T07:12:33.629Z,937.8
2023-04-01T07:13:35.493Z,937.8
2023-04-01T07:14:37.351Z,937.8
2023-04-01T07:15:39.511Z,937.7
2023-04-01T07:16:41.600Z,937.7
2023-04-01T07:17:43.874Z,937.8
2023-04-01T07:18:45.765Z,937.8
2023-04-01T07:19:47.621Z,937.7
2023-04-01T07:20:49.564Z,937.7
2023-04-01T07:21:51.423Z,937.6
2023-04-01T07:22:53.654Z,937.6
2023-04-01T07:23:55.525Z,937.6
2023-04-01T07:24:57.385Z,937.5
2023-04-01T07:25:59.253Z,937.5
2023-04-01T07:27:01.084Z,937.5
2023-04-01T07:28:03.038Z,937.5
2023-04-01T07:29:04.988Z,937.6
2023-04-01T07:30:06.773Z,937.6
2023-04-01T07:31:08.823Z,937.6
2023-04-01T07:32:11.043Z,937.5
2023-04-01T07:33:12.886Z,937.6
2023-04-01T07:34:14.748Z,937.6
2023-04-01T07:35:16.719Z,937.7
2023-04-01T07:36:18.606Z,937.6
2023-04-01T07:37:20.711Z,937.6
2023-04-01T07:38:22.917Z,937.6
2023-04-01T07:39:24.921Z,937.6
2023-04-01T07:40:26.667Z,937.6
2023-04-01T07:41:28.521Z,937.6
2023-04-01T07:42:30.472Z,937.6
2023-04-01T07:43:32.324Z,937.6
2023-04-01T07:44:34.272Z,937.7
2023-04-01T07:45:36.849Z,937.6
2023-04-01T07:46:39.003Z,937.6
2023-04-01T07:47:41.142Z,937.6
2023-04-01T07:48:43.129Z,937.6
2023-04-01T07:49:45.059Z,937.5
2023-04-01T07:50:52.628Z,937.5
2023-04-01T07:51:55.002Z,937.5
2023-04-01T07:52:56.862Z,937.5
2023-04-01T07:53:58.814Z,937.5
2023-04-01T07:55:00.670Z,937.5
2023-04-01T07:56:02.525Z,937.4
2023-04-01T07:57:04.578Z,937.5
2023-04-01T07:58:06.518Z,937.5
2023-04-01T07:59:08.389Z,937.5
2023-04-01T08:00:10.143Z,937.5
2023-04-01T08:01:11.970Z,937.5
2023-04-01T08:02:13.817Z,937.5
2023-04-01T08:03:16.232Z,937.6
2023-04-01T08:04:18.602Z,937.6
2023-04-01T08:05:20.526Z,937.5
2023-04-01T08:06:22.345Z,937.5
2023-04-01T08:07:24.196Z,937.5
2023-04-01T08:08:26.147Z,937.5
2023-04-01T08:09:27.995Z,937.4
2023-04-01T08:10:29.846Z,937.4
2023-04-01T08:11:31.802Z,937.4
2023-04-01T08:12:33.762Z,937.4
2023-04-01T08:13:35.591Z,937.4
2023-04-01T08:14:37.370Z,937.4
2023-04-01T08:15:39.196Z,937.4
2023-04-01T08:16:41.194Z,937.4
2023-04-01T08:17:43.310Z,937.4
2023-04-01T08:18:45.181Z,937.4
2023-04-01T08:19:47.027Z,937.5
2023-04-01T08:20:49.064Z,937.4
2023-04-01T08:21:50.804Z,937.3
2023-04-01T08:22:52.663Z,937.3
2023-04-01T08:23:54.504Z,937.3
2023-04-01T08:24:56.351Z,937.3
2023-04-01T08:25:58.196Z,937.2
2023-04-01T08:27:00.114Z,937.2
2023-04-01T08:28:02.029Z,937.2
2023-04-01T08:29:03.877Z,937.1
2023-04-01T08:30:05.715Z,937.1
2023-04-01T08:31:08.063Z,937
2023-04-01T08:32:10.300Z,936.9
2023-04-01T08:33:12.435Z,937
2023-04-01T08:34:14.347Z,936.9
2023-04-01T08:35:16.201Z,936.9
2023-04-01T08:36:18.473Z,936.9
2023-04-01T08:37:20.300Z,936.9
2023-04-01T08:38:22.123Z,936.9
2023-04-01T08:39:24.025Z,936.9
2023-04-01T08:40:25.733Z,936.8
2023-04-01T08:41:27.584Z,936.8
2023-04-01T08:42:29.432Z,936.7
2023-04-01T08:43:31.289Z,936.8
2023-04-01T08:44:33.145Z,936.7
2023-04-01T08:45:35.846Z,936.6
2023-04-01T08:46:38.379Z,936.5
2023-04-01T08:47:40.387Z,936.5
2023-04-01T08:48:42.290Z,936.5
2023-04-01T08:49:44.129Z,936.5
2023-04-01T08:50:46.007Z,936.5
2023-04-01T08:51:48.057Z,936.5
2023-04-01T08:52:49.883Z,936.5
2023-04-01T08:53:51.540Z,936.5
2023-04-01T08:54:53.366Z,936.4
2023-04-01T08:55:55.238Z,936.5
2023-04-01T08:56:57.095Z,936.4
2023-04-01T08:57:59.015Z,936.4
2023-04-01T08:59:01.000Z,936.5
2023-04-01T09:00:02.943Z,936.4
2023-04-01T09:01:04.785Z,936.4
2023-04-01T09:02:06.671Z,936.4
2023-04-01T09:03:09.204Z,936.4
2023-04-01T09:04:11.523Z,936.5
2023-04-01T09:05:13.516Z,936.5
2023-04-01T09:06:15.480Z,936.5
2023-04-01T09:07:17.425Z,936.5
2023-04-01T09:08:19.279Z,936.5
2023-04-01T09:09:21.226Z,936.5
2023-04-01T09:10:23.101Z,936.5
2023-04-01T09:11:25.240Z,936.5
2023-04-01T09:12:27.191Z,936.5
2023-04-01T09:13:29.137Z,936.5
2023-04-01T09:14:30.915Z,936.5
2023-04-01T09:15:34.041Z,936.5
2023-04-01T09:16:36.508Z,936.6
2023-04-01T09:17:39.019Z,936.5
2023-04-01T09:18:40.955Z,936.5
2023-04-01T09:19:42.908Z,936.5
2023-04-01T09:20:44.757Z,936.5
2023-04-01T09:21:46.728Z,936.5
2023-04-01T09:22:48.643Z,936.5
2023-04-01T09:23:50.416Z,936.4
2023-04-01T09:24:52.368Z,936.5
2023-04-01T09:25:54.222Z,936.4
2023-04-01T09:26:56.041Z,936.4
2023-04-01T09:27:58.530Z,936.4
2023-04-01T09:29:00.375Z,936.4
2023-04-01T09:30:02.338Z,936.4
2023-04-01T09:31:04.207Z,936.4
2023-04-01T09:32:06.135Z,936.3
2023-04-01T09:33:08.151Z,936.3
2023-04-01T09:34:10.146Z,936.3
2023-04-01T09:35:12.068Z,936.3
2023-04-01T09:36:14.200Z,936.2
2023-04-01T09:37:16.129Z,936.2
2023-04-01T09:38:17.976Z,936.2
2023-04-01T09:39:19.795Z,936.2
2023-04-01T09:40:21.751Z,936.2
2023-04-01T09:41:23.599Z,936.2
2023-04-01T09:42:25.560Z,936.2
2023-04-01T09:43:27.410Z,936.2
2023-04-01T09:44:29.250Z,936.1
2023-04-01T09:45:32.007Z,936.1
2023-04-01T09:46:34.541Z,936.1
2023-04-01T09:47:36.561Z,936
2023-04-01T09:48:38.401Z,936.1
2023-04-01T09:49:40.242Z,936
2023-04-01T09:50:42.206Z,936.1
2023-04-01T09:51:44.455Z,936
2023-04-01T09:52:47.073Z,936.1
2023-04-01T09:53:48.981Z,936.1
2023-04-01T09:54:50.826Z,936.1
2023-04-01T09:55:52.690Z,936.1
2023-04-01T09:56:54.643Z,936
2023-04-01T09:57:56.567Z,936
2023-04-01T09:58:58.439Z,935.9
2023-04-01T10:00:00.480Z,935.9
2023-04-01T10:01:02.335Z,935.9
2023-04-01T10:02:04.619Z,936
2023-04-01T10:03:06.914Z,935.9
2023-04-01T10:04:08.802Z,935.9
2023-04-01T10:05:10.802Z,935.9
2023-04-01T10:06:13.153Z,935.9
2023-04-01T10:07:15.376Z,935.8
2023-04-01T10:08:17.155Z,935.8
2023-04-01T10:09:19.679Z,935.8
2023-04-01T10:10:21.848Z,935.8
2023-04-01T10:11:23.697Z,935.8
2023-04-01T10:12:25.555Z,935.9
2023-04-01T10:13:27.443Z,935.9
2023-04-01T10:14:29.256Z,935.8
2023-04-01T10:15:31.804Z,935.8
2023-04-01T10:16:34.624Z,935.8
2023-04-01T10:17:36.659Z,935.7
2023-04-01T10:18:38.507Z,935.7
2023-04-01T10:19:40.353Z,935.7
2023-04-01T10:20:42.318Z,935.7
2023-04-01T10:21:44.268Z,935.6
2023-04-01T10:22:46.206Z,935.6
2023-04-01T10:23:48.072Z,935.7
2023-04-01T10:24:50.010Z,935.7
2023-04-01T10:25:51.856Z,935.7
2023-04-01T10:26:53.635Z,935.7
2023-04-01T10:27:55.559Z,935.7
2023-04-01T10:28:57.332Z,935.7
2023-04-01T10:29:59.163Z,935.6
2023-04-01T10:31:01.017Z,935.6
2023-04-01T10:32:03.104Z,935.6
2023-04-01T10:33:05.451Z,935.6
2023-04-01T10:34:07.589Z,935.6
2023-04-01T10:35:09.432Z,935.6
2023-04-01T10:36:11.555Z,935.5
2023-04-01T10:37:13.429Z,935.5
2023-04-01T10:38:15.282Z,935.5
2023-04-01T10:39:17.051Z,935.6
2023-04-01T10:40:18.891Z,935.6
2023-04-01T10:41:20.837Z,935.6
2023-04-01T10:42:22.578Z,935.5
2023-04-01T10:43:24.444Z,935.5
2023-04-01T10:44:26.284Z,935.5
2023-04-01T10:45:28.287Z,935.5
2023-04-01T10:46:30.477Z,935.4
2023-04-01T10:47:32.466Z,935.3
2023-04-01T10:48:34.542Z,935.3
2023-04-01T10:49:36.455Z,935.4
2023-04-01T10:50:38.288Z,935.4
2023-04-01T10:51:40.245Z,935.3
2023-04-01T10:52:42.125Z,935.3
2023-04-01T10:53:43.956Z,935.3
2023-04-01T10:54:45.832Z,935.3
2023-04-01T10:55:47.780Z,935.3
2023-04-01T10:56:49.851Z,935.3
2023-04-01T10:57:51.949Z,935.3
2023-04-01T10:58:54.167Z,935.2
2023-04-01T10:59:55.975Z,935.2
2023-04-01T11:00:57.854Z,935.2
2023-04-01T11:02:12.624Z,935.2
2023-04-01T11:03:15.162Z,935.1
2023-04-01T11:04:17.408Z,935.1
2023-04-01T11:05:21.609Z,935.1
2023-04-01T11:06:23.461Z,935.1
2023-04-01T11:07:25.313Z,935.1
2023-04-01T11:08:27.165Z,935.2
2023-04-01T11:09:29.104Z,935.3
2023-04-01T11:10:30.993Z,935.2
2023-04-01T11:11:32.914Z,935.1
2023-04-01T11:12:34.761Z,935.1
2023-04-01T11:13:36.743Z,935
2023-04-01T11:14:38.791Z,935
2023-04-01T11:15:40.634Z,935
2023-04-01T11:16:42.494Z,935
2023-04-01T11:17:44.645Z,935.1
2023-04-01T11:18:46.583Z,935
2023-04-01T11:19:48.436Z,935.1
2023-04-01T11:20:50.285Z,935
2023-04-01T11:21:52.135Z,934.9
2023-04-01T11:22:53.998Z,934.9
2023-04-01T11:24:06.215Z,934.9
2023-04-01T11:25:08.017Z,935
2023-04-01T11:26:09.997Z,934.9
2023-04-01T11:27:12.139Z,934.9
2023-04-01T11:28:14.298Z,934.9
2023-04-01T11:29:16.141Z,934.9
2023-04-01T11:30:18.067Z,934.8
2023-04-01T11:31:19.856Z,935
2023-04-01T11:32:21.898Z,935.1
2023-04-01T11:33:23.758Z,935.1
2023-04-01T11:34:25.617Z,935.1
2023-04-01T11:35:27.557Z,935.1
2023-04-01T11:36:29.418Z,935.2
2023-04-01T11:37:31.335Z,935.3
2023-04-01T11:38:33.304Z,935.3
2023-04-01T11:39:35.152Z,935.4
2023-04-01T11:40:37.099Z,935.4
2023-04-01T11:41:38.877Z,935.5
2023-04-01T11:42:40.806Z,935.6
2023-04-01T11:43:42.652Z,935.7
2023-04-01T11:44:44.496Z,935.7
2023-04-01T11:45:46.458Z,936.1
2023-04-01T11:46:48.541Z,936.2
2023-04-01T11:47:50.586Z,936.4
2023-04-01T11:48:52.519Z,936.5
2023-04-01T11:49:54.363Z,936.5
2023-04-01T11:50:56.364Z,936.6
2023-04-01T11:51:58.385Z,936.8
2023-04-01T11:53:00.330Z,936.9
2023-04-01T11:54:02.290Z,936.9
2023-04-01T11:55:04.235Z,936.9
2023-04-01T11:56:06.078Z,937
2023-04-01T11:57:08.074Z,937.1
2023-04-01T11:58:10.007Z,937.3
2023-04-01T11:59:11.935Z,937.4
2023-04-01T12:00:13.793Z,937.5
2023-04-01T12:01:15.639Z,937.4
2023-04-01T12:02:21.717Z,937.6
2023-04-01T12:03:24.307Z,937.6
2023-04-01T12:04:26.728Z,937.7
2023-04-01T12:05:28.561Z,937.8
2023-04-01T12:06:30.317Z,937.8
2023-04-01T12:07:32.169Z,937.8
2023-04-01T12:08:34.028Z,937.8
2023-04-01T12:09:35.986Z,937.7
2023-04-01T12:10:37.814Z,937.6
2023-04-01T12:11:39.800Z,937.4
2023-04-01T12:13:02.040Z,937.2
2023-04-01T12:14:03.973Z,937.3
2023-04-01T12:15:05.922Z,937.5
2023-04-01T12:16:07.934Z,937.7
2023-04-01T12:17:09.904Z,937.6
2023-04-01T12:18:11.916Z,937.6
2023-04-01T12:19:13.916Z,937.6
2023-04-01T12:20:15.874Z,937.6
2023-04-01T12:21:17.711Z,937.6
2023-04-01T12:22:19.691Z,937.6
2023-04-01T12:23:21.417Z,937.6
2023-04-01T12:24:23.271Z,937.6
2023-04-01T12:25:25.129Z,937.6
2023-04-01T12:26:27.053Z,937.6
2023-04-01T12:27:29.020Z,937.5
2023-04-01T12:28:30.926Z,937.5
2023-04-01T12:29:32.720Z,937.5
2023-04-01T12:30:34.696Z,937.5
2023-04-01T12:31:36.768Z,937.5
2023-04-01T12:32:38.845Z,937.4
2023-04-01T12:33:40.760Z,937.4
2023-04-01T12:34:42.603Z,937.3
2023-04-01T12:35:44.668Z,937.4
2023-04-01T12:36:46.505Z,937.3
2023-04-01T12:37:50.081Z,937.3
2023-04-01T12:38:51.942Z,937.3
2023-04-01T12:39:53.890Z,937.4
2023-04-01T12:40:55.740Z,937.4
2023-04-01T12:41:57.565Z,937.5
2023-04-01T12:42:59.462Z,937.5
2023-04-01T12:44:01.306Z,937.6
2023-04-01T12:45:03.249Z,937.6
2023-04-01T12:46:05.316Z,937.7
2023-04-01T12:47:07.364Z,937.7
2023-04-01T12:48:09.530Z,937.7
2023-04-01T12:49:11.370Z,937.8
2023-04-01T12:50:13.222Z,937.8
2023-04-01T12:51:15.136Z,937.7
2023-04-01T12:52:17.120Z,937.7
2023-04-01T12:53:18.961Z,937.7
2023-04-01T12:54:20.824Z,937.7
2023-04-01T12:55:22.769Z,937.7
2023-04-01T12:56:24.624Z,937.7
2023-04-01T12:57:26.605Z,937.7
2023-04-01T12:58:28.628Z,937.7
2023-04-01T12:59:30.593Z,937.7
2023-04-01T13:00:32.519Z,937.6
2023-04-01T13:01:34.517Z,937.6
2023-04-01T13:02:36.646Z,937.5
2023-04-01T13:03:38.739Z,937.5
2023-04-01T13:04:40.638Z,937.5
2023-04-01T13:05:42.506Z,937.5
2023-04-01T13:06:44.460Z,937.4
2023-04-01T13:07:46.299Z,937.4
2023-04-01T13:08:48.155Z,937.4
2023-04-01T13:09:52.785Z,937.3
2023-04-01T13:10:54.625Z,937.4
2023-04-01T13:11:56.563Z,937.3
2023-04-01T13:12:58.786Z,937.3
2023-04-01T13:14:00.671Z,937.4
2023-04-01T13:15:06.653Z,937.4
2023-04-01T13:16:08.615Z,937.3
2023-04-01T13:17:10.633Z,937.3
2023-04-01T13:18:12.572Z,937.2
2023-04-01T13:19:14.420Z,937.2
2023-04-01T13:20:16.273Z,937.1
2023-04-01T13:21:18.154Z,936.9
2023-04-01T13:22:20.124Z,936.9